1928 NOT_NAMED (1928224N22119)


IBTrACS version v04r00. Visit IBTrACS website for data access.
Please direct all questions to the IBTrACS Q and A forum

Storm track - Intensity - Wind Radii - Intensity Data - Source Data - All data

Summary Information

Storm ID 1928224N22119
Start Aug 10 22Z
Landfall Aug 11 06Z
End Aug 17 22Z
ATCF IDs
Track status Best track data.

Storm track plot

Map of storm track

Intensity plots

No Intensity information for this storm


Radial wind information

No radial wind information for this storm


Position and Intensity Table

BASIN ISO_TIME_________ NATURE LAT LON
degrees north degrees east
WP 1928-08-10 22:00:00 NR 22.20 118.50
WP 1928-08-11 00:00:00 NR 22.38 118.93
WP 03:00:00 NR 22.64 119.58
WP 06:00:00 NR 22.89 120.21
WP 09:00:00 NR 23.12 120.81
WP 10:00:00 NR 23.20 121.00
WP 12:00:00 NR 23.34 121.37
WP 15:00:00 NR 23.55 121.89
WP 18:00:00 NR 23.74 122.39
WP 21:00:00 NR 23.94 122.85
WP 22:00:00 NR 24.00 123.00
WP 1928-08-12 00:00:00 NR 24.13 123.30
WP 03:00:00 NR 24.33 123.74
WP 06:00:00 NR 24.53 124.16
WP 09:00:00 NR 24.73 124.57
WP 10:00:00 NR 24.80 124.70
WP 12:00:00 NR 24.94 124.98
WP 15:00:00 NR 25.15 125.39
WP 18:00:00 NR 25.35 125.80
WP 21:00:00 NR 25.54 126.18
WP 22:00:00 NR 25.60 126.30
WP 1928-08-13 00:00:00 NR 25.72 126.53
WP 03:00:00 NR 25.88 126.85
WP 06:00:00 NR 26.03 127.16
WP 09:00:00 NR 26.16 127.49
WP 10:00:00 NR 26.20 127.60
WP 12:00:00 NR 26.27 127.88
WP 15:00:00 NR 26.35 128.31
WP 18:00:00 NR 26.44 128.73
WP 21:00:00 NR 26.55 129.10
WP 22:00:00 NR 26.60 129.20
WP 1928-08-14 00:00:00 NR 26.72 129.36
WP 03:00:00 NR 26.94 129.53
WP 06:00:00 NR 27.18 129.65
WP 09:00:00 NR 27.42 129.76
WP 10:00:00 NR 27.50 129.80
WP 12:00:00 NR 27.66 129.91
WP 15:00:00 NR 27.89 130.08
WP 18:00:00 NR 28.09 130.24
WP 21:00:00 NR 28.26 130.37
WP 22:00:00 NR 28.30 130.40
WP 1928-08-15 00:00:00 NR 28.35 130.45
WP 03:00:00 NR 28.39 130.48
WP 06:00:00 NR 28.40 130.49
WP 09:00:00 NR 28.40 130.50
WP 10:00:00 NR 28.40 130.50
WP 12:00:00 NR 28.43 130.52
WP 15:00:00 NR 28.48 130.54
WP 18:00:00 NR 28.54 130.57
WP 21:00:00 NR 28.59 130.59
WP 22:00:00 NR 28.60 130.60
WP 1928-08-16 00:00:00 NR 28.62 130.62
WP 03:00:00 NR 28.64 130.64
WP 06:00:00 NR 28.66 130.67
WP 09:00:00 NR 28.69 130.69
WP 10:00:00 NR 28.70 130.70
WP 12:00:00 NR 28.73 130.72
WP 15:00:00 NR 28.78 130.74
WP 18:00:00 NR 28.84 130.77
WP 21:00:00 NR 28.89 130.79
WP 22:00:00 NR 28.90 130.80
WP 1928-08-17 00:00:00 NR 28.92 130.82
WP 03:00:00 NR 28.94 130.84
WP 06:00:00 NR 28.96 130.87
WP 09:00:00 NR 28.99 130.89
WP 10:00:00 NR 29.00 130.90
WP 12:00:00 NR 29.02 130.92
WP 15:00:00 NR 29.07 130.94
WP 18:00:00 NR 29.12 130.97
WP 21:00:00 NR 29.18 130.99
WP 22:00:00 NR 29.20 131.00

Source Information

Agency Information
USA
TOKYO
CMA
HKO
NEWDELHI
REUNION
BOM
NADI
WELLINGTON
DS824
TD9636 cons_worldwide_trop_cyclone_18710101-19891231-003:Line=8064
TD9635
NEUMANN
MLC

All available IBTrACS Data

SEASON BASIN SUBBASIN ISO_TIME_________ NATURE LAT LON DIST2LAND LANDFALL IFLAG USA SSHS TD9636 LAT TD9636 LON TD9636 STAGE STORM SPEED STORM DIR
Year degrees north degrees east km km 1 degrees north degrees east kts degrees
1928 WP MM 1928-08-10 22:00:00 NR 22.20 118.50 187 140 __________O___ -1 22.20 118.50 2 13 66
1928 WP MM 1928-08-11 00:00:00 NR 22.38 118.93 140 65 __________P___ -1 22.38 118.93 2 13 66
1928 WP MM 03:00:00 NR 22.64 119.58 65 0 __________P___ -1 22.64 119.58 2 13 66
1928 WP MM 06:00:00 NR 22.89 120.21 0 0 __________P___ -1 22.89 120.21 2 12 67
1928 WP MM 09:00:00 NR 23.12 120.81 0 0 __________P___ -1 23.12 120.81 2 12 67
1928 WP MM 10:00:00 NR 23.20 121.00 0 0 __________O___ -1 23.20 121.00 2 11 67
1928 WP MM 12:00:00 NR 23.34 121.37 0 0 __________P___ -1 23.34 121.37 2 11 67
1928 WP MM 15:00:00 NR 23.55 121.89 46 42 __________P___ -1 23.55 121.89 2 10 67
1928 WP MM 18:00:00 NR 23.74 122.39 91 87 __________P___ -1 23.74 122.39 2 10 66
1928 WP MM 21:00:00 NR 23.94 122.85 113 115 __________P___ -1 23.94 122.85 2 9 65
1928 WP MM 22:00:00 NR 24.00 123.00 124 124 __________O___ -1 24.00 123.00 2 9 65
1928 WP MM 1928-08-12 00:00:00 NR 24.13 123.30 148 148 __________P___ -1 24.13 123.30 2 9 64
1928 WP MM 03:00:00 NR 24.33 123.74 183 192 __________P___ -1 24.33 123.74 2 9 63
1928 WP MM 06:00:00 NR 24.53 124.16 228 226 __________P___ -1 24.53 124.16 2 9 62
1928 WP MM 09:00:00 NR 24.73 124.57 264 263 __________P___ -1 24.73 124.57 2 8 62
1928 WP MM 10:00:00 NR 24.80 124.70 273 273 __________O___ -1 24.80 124.70 2 9 61
1928 WP MM 12:00:00 NR 24.94 124.98 302 302 __________P___ -1 24.94 124.98 2 9 61
1928 WP MM 15:00:00 NR 25.15 125.39 342 342 __________P___ -1 25.15 125.39 2 8 61
1928 WP MM 18:00:00 NR 25.35 125.80 383 384 __________P___ -1 25.35 125.80 2 8 61
1928 WP MM 21:00:00 NR 25.54 126.18 425 427 __________P___ -1 25.54 126.18 2 8 61
1928 WP MM 22:00:00 NR 25.60 126.30 437 437 __________O___ -1 25.60 126.30 2 7 61
1928 WP MM 1928-08-13 00:00:00 NR 25.72 126.53 458 458 __________P___ -1 25.72 126.53 2 7 61
1928 WP MM 03:00:00 NR 25.88 126.85 491 501 __________P___ -1 25.88 126.85 2 6 61
1928 WP MM 06:00:00 NR 26.03 127.16 533 533 __________P___ -1 26.03 127.16 2 6 64
1928 WP MM 09:00:00 NR 26.16 127.49 567 567 __________P___ -1 26.16 127.49 2 6 66
1928 WP MM 10:00:00 NR 26.20 127.60 576 576 __________O___ -1 26.20 127.60 2 7 73
1928 WP MM 12:00:00 NR 26.27 127.88 591 564 __________P___ -1 26.27 127.88 2 8 77
1928 WP MM 15:00:00 NR 26.35 128.31 564 549 __________P___ -1 26.35 128.31 2 8 77
1928 WP MM 18:00:00 NR 26.44 128.73 549 515 __________P___ -1 26.44 128.73 2 7 74
1928 WP MM 21:00:00 NR 26.55 129.10 515 512 __________P___ -1 26.55 129.10 2 7 69
1928 WP MM 22:00:00 NR 26.60 129.20 512 496 __________O___ -1 26.60 129.20 2 6 54
1928 WP MM 1928-08-14 00:00:00 NR 26.72 129.36 496 472 __________P___ -1 26.72 129.36 2 5 41
1928 WP MM 03:00:00 NR 26.94 129.53 472 435 __________P___ -1 26.94 129.53 2 5 30
1928 WP MM 06:00:00 NR 27.18 129.65 435 411 __________P___ -1 27.18 129.65 2 5 23
1928 WP MM 09:00:00 NR 27.42 129.76 411 400 __________P___ -1 27.42 129.76 2 5 22
1928 WP MM 10:00:00 NR 27.50 129.80 400 376 __________O___ -1 27.50 129.80 2 5 29
1928 WP MM 12:00:00 NR 27.66 129.91 376 350 __________P___ -1 27.66 129.91 2 6 33
1928 WP MM 15:00:00 NR 27.89 130.08 350 327 __________P___ -1 27.89 130.08 2 5 33
1928 WP MM 18:00:00 NR 28.09 130.24 327 302 __________P___ -1 28.09 130.24 2 4 34
1928 WP MM 21:00:00 NR 28.26 130.37 302 302 __________P___ -1 28.26 130.37 2 4 35
1928 WP MM 22:00:00 NR 28.30 130.40 302 291 __________O___ -1 28.30 130.40 2 2 36
1928 WP MM 1928-08-15 00:00:00 NR 28.35 130.45 291 290 __________P___ -1 28.35 130.45 2 1 36
1928 WP MM 03:00:00 NR 28.39 130.48 290 290 __________P___ -1 28.39 130.48 2 1 40
1928 WP MM 06:00:00 NR 28.40 130.49 290 290 __________P___ -1 28.40 130.49 2 0 0
1928 WP MM 09:00:00 NR 28.40 130.50 290 290 __________P___ -1 28.40 130.50 2 0 0
1928 WP MM 10:00:00 NR 28.40 130.50 290 290 __________O___ -1 28.40 130.50 2 1 33
1928 WP MM 12:00:00 NR 28.43 130.52 290 279 __________P___ -1 28.43 130.52 2 1 22
1928 WP MM 15:00:00 NR 28.48 130.54 279 279 __________P___ -1 28.48 130.54 2 1 19
1928 WP MM 18:00:00 NR 28.54 130.57 279 268 __________P___ -1 28.54 130.57 2 1 22
1928 WP MM 21:00:00 NR 28.59 130.59 268 268 __________P___ -1 28.59 130.59 2 1 36
1928 WP MM 22:00:00 NR 28.60 130.60 268 268 __________O___ -1 28.60 130.60 2 1 30
1928 WP MM 1928-08-16 00:00:00 NR 28.62 130.62 268 268 __________P___ -1 28.62 130.62 2 1 40
1928 WP MM 03:00:00 NR 28.64 130.64 268 256 __________P___ -1 28.64 130.64 2 1 37
1928 WP MM 06:00:00 NR 28.66 130.67 256 256 __________P___ -1 28.66 130.67 2 1 34
1928 WP MM 09:00:00 NR 28.69 130.69 256 256 __________P___ -1 28.69 130.69 2 1 50
1928 WP MM 10:00:00 NR 28.70 130.70 256 256 __________O___ -1 28.70 130.70 2 1 0
1928 WP MM 12:00:00 NR 28.73 130.72 256 245 __________P___ -1 28.73 130.72 2 1 22
1928 WP MM 15:00:00 NR 28.78 130.74 245 245 __________P___ -1 28.78 130.74 2 1 19
1928 WP MM 18:00:00 NR 28.84 130.77 245 234 __________P___ -1 28.84 130.77 2 1 22
1928 WP MM 21:00:00 NR 28.89 130.79 234 234 __________P___ -1 28.89 130.79 2 1 36
1928 WP MM 22:00:00 NR 28.90 130.80 234 234 __________O___ -1 28.90 130.80 2 1 30
1928 WP MM 1928-08-17 00:00:00 NR 28.92 130.82 234 234 __________P___ -1 28.92 130.82 2 1 40
1928 WP MM 03:00:00 NR 28.94 130.84 234 224 __________P___ -1 28.94 130.84 2 1 37
1928 WP MM 06:00:00 NR 28.96 130.87 224 224 __________P___ -1 28.96 130.87 2 1 34
1928 WP MM 09:00:00 NR 28.99 130.89 224 224 __________P___ -1 28.99 130.89 2 1 50
1928 WP MM 10:00:00 NR 29.00 130.90 224 224 __________O___ -1 29.00 130.90 2 1 27
1928 WP MM 12:00:00 NR 29.02 130.92 224 212 __________P___ -1 29.02 130.92 2 1 27
1928 WP MM 15:00:00 NR 29.07 130.94 212 212 __________P___ -1 29.07 130.94 2 1 20
1928 WP MM 18:00:00 NR 29.12 130.97 213 202 __________P___ -1 29.12 130.97 2 1 22
1928 WP MM 21:00:00 NR 29.18 130.99 202 202 __________P___ -1 29.18 130.99 2 1 30
1928 WP MM 22:00:00 NR 29.20 131.00 202 __________O___ -1 29.20 131.00 2 1 0